Callao, Utah
Current Conditions -  °F | °C
As of 5:55 AM on Tuesday 21 Oct 2014 (Local Time) from KENV Reporting Station
Clear Clear  
Wind Chill: 61°   Ceiling: Unl
Heat Index: 61°   Visibility: 10mi
Dew Point: 36°   Wind: 15mph
Humidity: 39%   Direction: 180°S
Pressure: 29.85"   Gusts: NA
Location:  40.0375°N, 113.984°W
Report Text: KENV 211155Z AUTO 18013KT 10SM CLR 16/02 A2985 RMK AO1 10170 20110 52007
Loading
Personal Weather Stations






























Interactive Weather Map
Tropical Storm Tracking
New forecast layout! Learn more

10-Day Weather Forecast

Advertisements
Track Severe Weather on mobile